Aviation Digital Data Service (ADDS)

Output produced by METARs form (2324 UTC 29 April 2017)
found at http://aviationweather.gov/adds/metars/
 
KINT 291720Z 2918/3018 19006KT P6SM SCT018 BKN250 
     FM300800 20004KT 5SM BR BKN006 
     FM301300 21006KT P6SM BKN009 
     FM301400 20009KT P6SM BKN012 
     FM301600 20010G18KT P6SM SCT025